sensor_id;sensor_type;location;lat;lon;timestamp;P1;durP1;ratioP1;P2;durP2;ratioP2
64738;SDS011;51175;51.186;0.276;2022-10-16T00:00:03;93.50;;;50.33;;
64738;SDS011;51175;51.186;0.276;2022-10-16T00:00:36;103.72;;;55.42;;
64738;SDS011;51175;51.186;0.276;2022-10-16T00:01:09;93.85;;;51.53;;
64738;SDS011;51175;51.186;0.276;2022-10-16T00:01:41;97.05;;;52.35;;
64738;SDS011;51175;51.186;0.276;2022-10-16T00:02:11;86.63;;;46.80;;
64738;SDS011;51175;51.186;0.276;2022-10-16T00:02:42;90.28;;;50.38;;
64738;SDS011;51175;51.186;0.276;2022-10-16T00:03:12;99.47;;;52.78;;
64738;SDS011;51175;51.186;0.276;2022-10-16T00:03:43;97.85;;;50.15;;
64738;SDS011;51175;51.186;0.276;2022-10-16T00:04:15;98.32;;;50.83;;
64738;SDS011;51175;51.186;0.276;2022-10-16T00:04:45;93.18;;;50.83;;
64738;SDS011;51175;51.186;0.276;2022-10-16T00:05:16;95.15;;;49.88;;
64738;SDS011;51175;51.186;0.276;2022-10-16T00:05:46;97.03;;;53.70;;
64738;SDS011;51175;51.186;0.276;2022-10-16T00:06:17;89.50;;;48.95;;
64738;SDS011;51175;51.186;0.276;2022-10-16T00:06:50;91.40;;;48.45;;
64738;SDS011;51175;51.186;0.276;2022-10-16T00:07:20;91.38;;;51.17;;
64738;SDS011;51175;51.186;0.276;2022-10-16T00:07:50;97.35;;;49.55;;
64738;SDS011;51175;51.186;0.276;2022-10-16T00:08:21;87.57;;;48.20;;
64738;SDS011;51175;51.186;0.276;2022-10-16T00:08:51;89.72;;;47.38;;
64738;SDS011;51175;51.186;0.276;2022-10-16T00:09:22;90.65;;;48.60;;
64738;SDS011;51175;51.186;0.276;2022-10-16T00:09:52;91.28;;;48.95;;
64738;SDS011;51175;51.186;0.276;2022-10-16T00:10:23;87.50;;;48.92;;
64738;SDS011;51175;51.186;0.276;2022-10-16T00:10:58;87.85;;;47.20;;
64738;SDS011;51175;51.186;0.276;2022-10-16T00:11:30;92.70;;;50.60;;
64738;SDS011;51175;51.186;0.276;2022-10-16T00:12:03;87.78;;;46.83;;
64738;SDS011;51175;51.186;0.276;2022-10-16T00:12:36;88.45;;;47.53;;
64738;SDS011;51175;51.186;0.276;2022-10-16T00:13:07;95.97;;;49.83;;
64738;SDS011;51175;51.186;0.276;2022-10-16T00:13:38;92.93;;;48.55;;
64738;SDS011;51175;51.186;0.276;2022-10-16T00:14:12;86.03;;;45.42;;
64738;SDS011;51175;51.186;0.276;2022-10-16T00:14:43;78.45;;;43.92;;
64738;SDS011;51175;51.186;0.276;2022-10-16T00:15:14;84.25;;;43.70;;
64738;SDS011;51175;51.186;0.276;2022-10-16T00:15:45;76.70;;;43.92;;
64738;SDS011;51175;51.186;0.276;2022-10-16T00:16:16;86.93;;;45.65;;
64738;SDS011;51175;51.186;0.276;2022-10-16T00:16:47;86.80;;;44.75;;
64738;SDS011;51175;51.186;0.276;2022-10-16T00:17:17;83.93;;;45.35;;
64738;SDS011;51175;51.186;0.276;2022-10-16T00:17:48;79.90;;;42.08;;
64738;SDS011;51175;51.186;0.276;2022-10-16T00:18:18;86.40;;;43.17;;
64738;SDS011;51175;51.186;0.276;2022-10-16T00:18:48;87.05;;;45.53;;
64738;SDS011;51175;51.186;0.276;2022-10-16T00:19:19;82.47;;;42.60;;
64738;SDS011;51175;51.186;0.276;2022-10-16T00:19:49;78.13;;;43.83;;
64738;SDS011;51175;51.186;0.276;2022-10-16T00:20:20;79.45;;;43.75;;
64738;SDS011;51175;51.186;0.276;2022-10-16T00:20:50;76.13;;;40.03;;
64738;SDS011;51175;51.186;0.276;2022-10-16T00:21:22;81.65;;;41.50;;
64738;SDS011;51175;51.186;0.276;2022-10-16T00:21:55;74.97;;;40.38;;
64738;SDS011;51175;51.186;0.276;2022-10-16T00:22:25;74.45;;;39.03;;
64738;SDS011;51175;51.186;0.276;2022-10-16T00:22:55;79.20;;;40.42;;
64738;SDS011;51175;51.186;0.276;2022-10-16T00:23:26;83.63;;;44.13;;
64738;SDS011;51175;51.186;0.276;2022-10-16T00:23:57;81.10;;;42.30;;
64738;SDS011;51175;51.186;0.276;2022-10-16T00:24:30;70.60;;;39.10;;
64738;SDS011;51175;51.186;0.276;2022-10-16T00:25:00;74.80;;;41.42;;
64738;SDS011;51175;51.186;0.276;2022-10-16T00:25:31;75.03;;;39.28;;
64738;SDS011;51175;51.186;0.276;2022-10-16T00:26:07;79.55;;;40.72;;
64738;SDS011;51175;51.186;0.276;2022-10-16T00:26:41;81.57;;;42.00;;
64738;SDS011;51175;51.186;0.276;2022-10-16T00:27:12;78.93;;;41.80;;
64738;SDS011;51175;51.186;0.276;2022-10-16T00:27:42;72.95;;;39.53;;
64738;SDS011;51175;51.186;0.276;2022-10-16T00:28:13;76.28;;;38.47;;
64738;SDS011;51175;51.186;0.276;2022-10-16T00:28:45;75.28;;;39.17;;
64738;SDS011;51175;51.186;0.276;2022-10-16T00:29:19;74.43;;;39.92;;
64738;SDS011;51175;51.186;0.276;2022-10-16T00:29:50;68.18;;;37.05;;
64738;SDS011;51175;51.186;0.276;2022-10-16T00:30:21;75.63;;;38.70;;
64738;SDS011;51175;51.186;0.276;2022-10-16T00:30:51;73.00;;;39.63;;
64738;SDS011;51175;51.186;0.276;2022-10-16T00:31:22;74.07;;;37.25;;
64738;SDS011;51175;51.186;0.276;2022-10-16T00:31:53;74.43;;;37.85;;
64738;SDS011;51175;51.186;0.276;2022-10-16T00:32:24;75.88;;;38.83;;
64738;SDS011;51175;51.186;0.276;2022-10-16T00:32:54;72.03;;;36.33;;
64738;SDS011;51175;51.186;0.276;2022-10-16T00:33:25;67.03;;;36.38;;
64738;SDS011;51175;51.186;0.276;2022-10-16T00:33:55;73.10;;;37.47;;
64738;SDS011;51175;51.186;0.276;2022-10-16T00:34:26;70.25;;;36.63;;
64738;SDS011;51175;51.186;0.276;2022-10-16T00:34:56;69.20;;;36.78;;
64738;SDS011;51175;51.186;0.276;2022-10-16T00:35:27;68.93;;;34.80;;
64738;SDS011;51175;51.186;0.276;2022-10-16T00:35:59;70.50;;;36.50;;
64738;SDS011;51175;51.186;0.276;2022-10-16T00:36:30;74.18;;;37.05;;
64738;SDS011;51175;51.186;0.276;2022-10-16T00:37:02;65.68;;;34.45;;
64738;SDS011;51175;51.186;0.276;2022-10-16T00:37:33;69.18;;;37.35;;
64738;SDS011;51175;51.186;0.276;2022-10-16T00:38:03;73.38;;;33.47;;
64738;SDS011;51175;51.186;0.276;2022-10-16T00:38:33;69.68;;;33.47;;
64738;SDS011;51175;51.186;0.276;2022-10-16T00:39:04;64.88;;;33.70;;
64738;SDS011;51175;51.186;0.276;2022-10-16T00:39:35;58.10;;;32.28;;
64738;SDS011;51175;51.186;0.276;2022-10-16T00:40:05;63.65;;;35.20;;
64738;SDS011;51175;51.186;0.276;2022-10-16T00:40:36;64.97;;;32.85;;
64738;SDS011;51175;51.186;0.276;2022-10-16T00:41:07;65.05;;;33.35;;
64738;SDS011;51175;51.186;0.276;2022-10-16T00:41:42;72.50;;;36.10;;
64738;SDS011;51175;51.186;0.276;2022-10-16T00:42:15;69.20;;;34.58;;
64738;SDS011;51175;51.186;0.276;2022-10-16T00:42:47;59.50;;;33.63;;
64738;SDS011;51175;51.186;0.276;2022-10-16T00:44:58;69.57;;;32.00;;
64738;SDS011;51175;51.186;0.276;2022-10-16T00:45:28;60.25;;;30.80;;
64738;SDS011;51175;51.186;0.276;2022-10-16T00:45:59;61.22;;;31.05;;
64738;SDS011;51175;51.186;0.276;2022-10-16T00:46:35;69.75;;;32.92;;
64738;SDS011;51175;51.186;0.276;2022-10-16T00:47:13;63.67;;;30.55;;
64738;SDS011;51175;51.186;0.276;2022-10-16T00:47:48;64.32;;;32.30;;
64738;SDS011;51175;51.186;0.276;2022-10-16T00:48:22;60.83;;;30.40;;
64738;SDS011;51175;51.186;0.276;2022-10-16T00:48:55;61.63;;;31.80;;
64738;SDS011;51175;51.186;0.276;2022-10-16T00:49:29;63.17;;;31.52;;
64738;SDS011;51175;51.186;0.276;2022-10-16T00:50:06;61.33;;;31.80;;
64738;SDS011;51175;51.186;0.276;2022-10-16T00:50:37;62.72;;;31.70;;
64738;SDS011;51175;51.186;0.276;2022-10-16T00:51:09;61.67;;;30.90;;
64738;SDS011;51175;51.186;0.276;2022-10-16T00:52:01;54.00;;;28.98;;
64738;SDS011;51175;51.186;0.276;2022-10-16T00:52:30;62.08;;;31.48;;
64738;SDS011;51175;51.186;0.276;2022-10-16T00:53:01;58.42;;;29.42;;
64738;SDS011;51175;51.186;0.276;2022-10-16T00:53:32;57.30;;;28.67;;
64738;SDS011;51175;51.186;0.276;2022-10-16T00:54:07;59.80;;;29.17;;
64738;SDS011;51175;51.186;0.276;2022-10-16T00:54:49;58.63;;;28.63;;
64738;SDS011;51175;51.186;0.276;2022-10-16T00:55:20;58.45;;;28.67;;
64738;SDS011;51175;51.186;0.276;2022-10-16T00:55:51;55.45;;;29.20;;
64738;SDS011;51175;51.186;0.276;2022-10-16T00:56:22;55.00;;;28.77;;
64738;SDS011;51175;51.186;0.276;2022-10-16T00:56:52;60.85;;;29.42;;
64738;SDS011;51175;51.186;0.276;2022-10-16T00:57:24;65.95;;;28.67;;
64738;SDS011;51175;51.186;0.276;2022-10-16T00:57:55;54.83;;;28.15;;
64738;SDS011;51175;51.186;0.276;2022-10-16T00:58:27;55.17;;;28.90;;
64738;SDS011;51175;51.186;0.276;2022-10-16T00:58:57;56.60;;;27.70;;
64738;SDS011;51175;51.186;0.276;2022-10-16T00:59:36;54.38;;;27.80;;
64738;SDS011;51175;51.186;0.276;2022-10-16T01:00:12;55.40;;;29.35;;
64738;SDS011;51175;51.186;0.276;2022-10-16T01:00:45;58.45;;;29.08;;
64738;SDS011;51175;51.186;0.276;2022-10-16T01:01:16;60.95;;;27.10;;
64738;SDS011;51175;51.186;0.276;2022-10-16T01:01:46;60.03;;;26.48;;
64738;SDS011;51175;51.186;0.276;2022-10-16T01:02:17;53.35;;;26.30;;
64738;SDS011;51175;51.186;0.276;2022-10-16T01:02:54;53.58;;;29.38;;
64738;SDS011;51175;51.186;0.276;2022-10-16T01:03:56;52.97;;;27.60;;
64738;SDS011;51175;51.186;0.276;2022-10-16T01:04:27;54.53;;;27.05;;
64738;SDS011;51175;51.186;0.276;2022-10-16T01:05:03;56.47;;;27.35;;
64738;SDS011;51175;51.186;0.276;2022-10-16T01:05:39;50.95;;;27.33;;
64738;SDS011;51175;51.186;0.276;2022-10-16T01:06:55;52.17;;;26.75;;
64738;SDS011;51175;51.186;0.276;2022-10-16T01:07:41;53.65;;;25.70;;
64738;SDS011;51175;51.186;0.276;2022-10-16T01:08:34;49.97;;;24.80;;
64738;SDS011;51175;51.186;0.276;2022-10-16T01:09:30;51.08;;;25.23;;
64738;SDS011;51175;51.186;0.276;2022-10-16T01:10:30;54.08;;;25.95;;
64738;SDS011;51175;51.186;0.276;2022-10-16T01:11:17;49.13;;;24.15;;
64738;SDS011;51175;51.186;0.276;2022-10-16T01:12:06;55.17;;;26.70;;
64738;SDS011;51175;51.186;0.276;2022-10-16T01:13:41;48.88;;;24.77;;
64738;SDS011;51175;51.186;0.276;2022-10-16T01:14:33;54.28;;;26.30;;
64738;SDS011;51175;51.186;0.276;2022-10-16T01:15:17;52.75;;;25.83;;
64738;SDS011;51175;51.186;0.276;2022-10-16T01:16:11;46.65;;;23.20;;
64738;SDS011;51175;51.186;0.276;2022-10-16T01:16:53;52.25;;;25.48;;
64738;SDS011;51175;51.186;0.276;2022-10-16T01:17:45;49.83;;;23.98;;
64738;SDS011;51175;51.186;0.276;2022-10-16T01:18:29;53.08;;;24.45;;
64738;SDS011;51175;51.186;0.276;2022-10-16T01:19:12;51.03;;;23.35;;
64738;SDS011;51175;51.186;0.276;2022-10-16T01:21:29;49.13;;;24.27;;
64738;SDS011;51175;51.186;0.276;2022-10-16T01:22:05;44.90;;;24.60;;
64738;SDS011;51175;51.186;0.276;2022-10-16T01:22:43;52.13;;;25.65;;
64738;SDS011;51175;51.186;0.276;2022-10-16T01:24:38;46.22;;;23.35;;
64738;SDS011;51175;51.186;0.276;2022-10-16T01:25:36;48.42;;;23.33;;
64738;SDS011;51175;51.186;0.276;2022-10-16T01:26:58;48.38;;;23.15;;
64738;SDS011;51175;51.186;0.276;2022-10-16T01:27:31;47.72;;;22.70;;
64738;SDS011;51175;51.186;0.276;2022-10-16T01:28:05;49.08;;;24.67;;
64738;SDS011;51175;51.186;0.276;2022-10-16T01:29:02;47.80;;;24.35;;
64738;SDS011;51175;51.186;0.276;2022-10-16T01:29:32;43.90;;;21.35;;
64738;SDS011;51175;51.186;0.276;2022-10-16T01:30:08;50.55;;;22.65;;
64738;SDS011;51175;51.186;0.276;2022-10-16T01:30:44;46.80;;;23.83;;
64738;SDS011;51175;51.186;0.276;2022-10-16T01:31:16;49.30;;;24.08;;
64738;SDS011;51175;51.186;0.276;2022-10-16T01:32:53;46.08;;;22.08;;
64738;SDS011;51175;51.186;0.276;2022-10-16T01:33:28;47.15;;;22.45;;
64738;SDS011;51175;51.186;0.276;2022-10-16T01:34:05;48.35;;;22.77;;
64738;SDS011;51175;51.186;0.276;2022-10-16T01:35:52;43.25;;;22.27;;
64738;SDS011;51175;51.186;0.276;2022-10-16T01:36:26;44.55;;;22.00;;
64738;SDS011;51175;51.186;0.276;2022-10-16T01:37:12;44.58;;;22.35;;
64738;SDS011;51175;51.186;0.276;2022-10-16T01:38:38;44.67;;;21.25;;
64738;SDS011;51175;51.186;0.276;2022-10-16T01:39:10;47.72;;;22.80;;
64738;SDS011;51175;51.186;0.276;2022-10-16T01:39:42;37.72;;;19.85;;
64738;SDS011;51175;51.186;0.276;2022-10-16T01:40:17;42.50;;;20.52;;
64738;SDS011;51175;51.186;0.276;2022-10-16T01:40:52;49.65;;;21.40;;
64738;SDS011;51175;51.186;0.276;2022-10-16T01:41:41;42.55;;;21.15;;
64738;SDS011;51175;51.186;0.276;2022-10-16T01:42:27;43.13;;;22.45;;
64738;SDS011;51175;51.186;0.276;2022-10-16T01:43:12;43.88;;;21.67;;
64738;SDS011;51175;51.186;0.276;2022-10-16T01:44:08;43.20;;;21.65;;
64738;SDS011;51175;51.186;0.276;2022-10-16T01:44:55;42.10;;;21.33;;
64738;SDS011;51175;51.186;0.276;2022-10-16T01:45:28;45.45;;;20.50;;
64738;SDS011;51175;51.186;0.276;2022-10-16T01:46:01;36.83;;;21.15;;
64738;SDS011;51175;51.186;0.276;2022-10-16T01:46:32;41.60;;;22.90;;
64738;SDS011;51175;51.186;0.276;2022-10-16T01:47:07;45.05;;;20.77;;
64738;SDS011;51175;51.186;0.276;2022-10-16T01:47:40;42.40;;;20.70;;
64738;SDS011;51175;51.186;0.276;2022-10-16T01:48:14;46.50;;;21.30;;
64738;SDS011;51175;51.186;0.276;2022-10-16T01:48:48;40.60;;;19.85;;
64738;SDS011;51175;51.186;0.276;2022-10-16T01:49:20;39.70;;;20.08;;
64738;SDS011;51175;51.186;0.276;2022-10-16T01:49:53;39.90;;;19.70;;
64738;SDS011;51175;51.186;0.276;2022-10-16T01:50:25;44.97;;;20.92;;
64738;SDS011;51175;51.186;0.276;2022-10-16T01:50:59;38.70;;;19.77;;
64738;SDS011;51175;51.186;0.276;2022-10-16T01:51:35;32.65;;;18.70;;
64738;SDS011;51175;51.186;0.276;2022-10-16T01:52:08;42.17;;;20.55;;
64738;SDS011;51175;51.186;0.276;2022-10-16T01:52:43;45.25;;;19.08;;
64738;SDS011;51175;51.186;0.276;2022-10-16T01:53:16;41.88;;;18.92;;
64738;SDS011;51175;51.186;0.276;2022-10-16T01:53:48;42.63;;;18.85;;
64738;SDS011;51175;51.186;0.276;2022-10-16T01:54:22;35.03;;;18.20;;
64738;SDS011;51175;51.186;0.276;2022-10-16T01:54:56;32.05;;;17.52;;
64738;SDS011;51175;51.186;0.276;2022-10-16T01:55:29;35.90;;;17.85;;
64738;SDS011;51175;51.186;0.276;2022-10-16T01:56:08;40.83;;;18.33;;
64738;SDS011;51175;51.186;0.276;2022-10-16T01:56:42;42.35;;;19.75;;
64738;SDS011;51175;51.186;0.276;2022-10-16T01:57:13;49.15;;;19.52;;
64738;SDS011;51175;51.186;0.276;2022-10-16T01:57:47;38.80;;;17.58;;
64738;SDS011;51175;51.186;0.276;2022-10-16T01:58:21;41.88;;;19.23;;
64738;SDS011;51175;51.186;0.276;2022-10-16T01:59:15;35.60;;;18.30;;
64738;SDS011;51175;51.186;0.276;2022-10-16T01:59:48;37.55;;;18.45;;
64738;SDS011;51175;51.186;0.276;2022-10-16T02:00:21;39.40;;;17.85;;
64738;SDS011;51175;51.186;0.276;2022-10-16T02:00:53;39.47;;;18.52;;
64738;SDS011;51175;51.186;0.276;2022-10-16T02:01:25;37.30;;;17.60;;
64738;SDS011;51175;51.186;0.276;2022-10-16T02:01:59;42.83;;;18.60;;
64738;SDS011;51175;51.186;0.276;2022-10-16T02:02:33;36.60;;;17.38;;
64738;SDS011;51175;51.186;0.276;2022-10-16T02:03:04;41.15;;;17.63;;
64738;SDS011;51175;51.186;0.276;2022-10-16T02:03:36;36.13;;;18.95;;
64738;SDS011;51175;51.186;0.276;2022-10-16T02:04:15;37.85;;;17.88;;
64738;SDS011;51175;51.186;0.276;2022-10-16T02:04:49;30.40;;;16.23;;
64738;SDS011;51175;51.186;0.276;2022-10-16T02:05:32;34.60;;;16.80;;
64738;SDS011;51175;51.186;0.276;2022-10-16T02:06:23;36.30;;;16.70;;
64738;SDS011;51175;51.186;0.276;2022-10-16T02:06:55;35.67;;;15.98;;
64738;SDS011;51175;51.186;0.276;2022-10-16T02:07:25;35.30;;;16.92;;
64738;SDS011;51175;51.186;0.276;2022-10-16T02:07:56;40.45;;;19.23;;
64738;SDS011;51175;51.186;0.276;2022-10-16T02:08:27;32.00;;;17.33;;
64738;SDS011;51175;51.186;0.276;2022-10-16T02:08:59;37.42;;;16.27;;
64738;SDS011;51175;51.186;0.276;2022-10-16T02:09:30;37.50;;;15.95;;
64738;SDS011;51175;51.186;0.276;2022-10-16T02:10:04;36.17;;;17.52;;
64738;SDS011;51175;51.186;0.276;2022-10-16T02:10:35;33.08;;;16.13;;
64738;SDS011;51175;51.186;0.276;2022-10-16T02:11:06;33.00;;;16.92;;
64738;SDS011;51175;51.186;0.276;2022-10-16T02:11:36;32.55;;;15.43;;
64738;SDS011;51175;51.186;0.276;2022-10-16T02:12:22;35.00;;;16.38;;
64738;SDS011;51175;51.186;0.276;2022-10-16T02:13:19;31.80;;;15.85;;
64738;SDS011;51175;51.186;0.276;2022-10-16T02:14:04;32.97;;;15.90;;
64738;SDS011;51175;51.186;0.276;2022-10-16T02:14:37;30.27;;;15.15;;
64738;SDS011;51175;51.186;0.276;2022-10-16T02:15:09;29.23;;;13.98;;
64738;SDS011;51175;51.186;0.276;2022-10-16T02:15:39;34.42;;;17.92;;
64738;SDS011;51175;51.186;0.276;2022-10-16T02:16:10;34.92;;;15.75;;
64738;SDS011;51175;51.186;0.276;2022-10-16T02:16:42;33.47;;;14.98;;
64738;SDS011;51175;51.186;0.276;2022-10-16T02:17:15;33.83;;;15.48;;
64738;SDS011;51175;51.186;0.276;2022-10-16T02:17:47;34.60;;;16.90;;
64738;SDS011;51175;51.186;0.276;2022-10-16T02:18:17;35.70;;;17.13;;
64738;SDS011;51175;51.186;0.276;2022-10-16T02:18:48;31.75;;;15.57;;
64738;SDS011;51175;51.186;0.276;2022-10-16T02:19:19;39.13;;;16.40;;
64738;SDS011;51175;51.186;0.276;2022-10-16T02:19:51;29.35;;;14.98;;
64738;SDS011;51175;51.186;0.276;2022-10-16T02:20:25;38.83;;;16.67;;
64738;SDS011;51175;51.186;0.276;2022-10-16T02:21:56;29.67;;;15.30;;
64738;SDS011;51175;51.186;0.276;2022-10-16T02:22:40;37.40;;;15.43;;
64738;SDS011;51175;51.186;0.276;2022-10-16T02:23:19;32.70;;;14.50;;
64738;SDS011;51175;51.186;0.276;2022-10-16T02:25:37;27.65;;;13.55;;
64738;SDS011;51175;51.186;0.276;2022-10-16T02:25:52;34.97;;;14.65;;
64738;SDS011;51175;51.186;0.276;2022-10-16T02:26:44;31.30;;;13.55;;
64738;SDS011;51175;51.186;0.276;2022-10-16T02:27:19;26.92;;;13.43;;
64738;SDS011;51175;51.186;0.276;2022-10-16T02:27:55;26.98;;;12.82;;
64738;SDS011;51175;51.186;0.276;2022-10-16T02:28:46;34.50;;;13.27;;
64738;SDS011;51175;51.186;0.276;2022-10-16T02:29:23;36.63;;;15.13;;
64738;SDS011;51175;51.186;0.276;2022-10-16T02:29:59;29.35;;;13.07;;
64738;SDS011;51175;51.186;0.276;2022-10-16T02:30:39;34.40;;;13.40;;
64738;SDS011;51175;51.186;0.276;2022-10-16T02:31:22;31.55;;;14.70;;
64738;SDS011;51175;51.186;0.276;2022-10-16T02:31:59;29.45;;;13.90;;
64738;SDS011;51175;51.186;0.276;2022-10-16T02:32:33;29.48;;;14.55;;
64738;SDS011;51175;51.186;0.276;2022-10-16T02:33:08;35.60;;;14.77;;
64738;SDS011;51175;51.186;0.276;2022-10-16T02:33:41;33.83;;;16.35;;
64738;SDS011;51175;51.186;0.276;2022-10-16T02:34:13;31.92;;;15.38;;
64738;SDS011;51175;51.186;0.276;2022-10-16T02:34:46;34.28;;;15.90;;
64738;SDS011;51175;51.186;0.276;2022-10-16T02:35:19;37.08;;;18.08;;
64738;SDS011;51175;51.186;0.276;2022-10-16T02:35:53;32.72;;;16.40;;
64738;SDS011;51175;51.186;0.276;2022-10-16T02:36:25;36.10;;;15.10;;
64738;SDS011;51175;51.186;0.276;2022-10-16T02:36:57;28.83;;;14.25;;
64738;SDS011;51175;51.186;0.276;2022-10-16T02:37:29;26.67;;;14.95;;
64738;SDS011;51175;51.186;0.276;2022-10-16T02:38:00;35.50;;;14.85;;
64738;SDS011;51175;51.186;0.276;2022-10-16T02:38:32;28.80;;;13.82;;
64738;SDS011;51175;51.186;0.276;2022-10-16T02:39:02;32.30;;;14.75;;
64738;SDS011;51175;51.186;0.276;2022-10-16T02:39:34;37.33;;;17.13;;
64738;SDS011;51175;51.186;0.276;2022-10-16T02:40:05;28.98;;;13.93;;
64738;SDS011;51175;51.186;0.276;2022-10-16T02:40:37;37.55;;;15.07;;
64738;SDS011;51175;51.186;0.276;2022-10-16T02:41:07;35.15;;;14.75;;
64738;SDS011;51175;51.186;0.276;2022-10-16T02:41:38;35.97;;;18.98;;
64738;SDS011;51175;51.186;0.276;2022-10-16T02:42:10;37.35;;;16.15;;
64738;SDS011;51175;51.186;0.276;2022-10-16T02:42:42;37.80;;;14.50;;
64738;SDS011;51175;51.186;0.276;2022-10-16T02:43:12;31.20;;;14.23;;
64738;SDS011;51175;51.186;0.276;2022-10-16T02:43:43;36.88;;;15.32;;
64738;SDS011;51175;51.186;0.276;2022-10-16T02:44:13;31.60;;;15.05;;
64738;SDS011;51175;51.186;0.276;2022-10-16T02:44:44;35.47;;;14.85;;
64738;SDS011;51175;51.186;0.276;2022-10-16T02:45:14;31.23;;;14.77;;
64738;SDS011;51175;51.186;0.276;2022-10-16T02:45:44;34.45;;;14.45;;
64738;SDS011;51175;51.186;0.276;2022-10-16T02:46:15;34.03;;;14.90;;
64738;SDS011;51175;51.186;0.276;2022-10-16T02:46:46;33.80;;;15.68;;
64738;SDS011;51175;51.186;0.276;2022-10-16T02:47:17;33.45;;;14.35;;
64738;SDS011;51175;51.186;0.276;2022-10-16T02:47:47;39.50;;;17.55;;
64738;SDS011;51175;51.186;0.276;2022-10-16T02:48:18;34.97;;;15.95;;
64738;SDS011;51175;51.186;0.276;2022-10-16T02:48:48;39.50;;;14.55;;
64738;SDS011;51175;51.186;0.276;2022-10-16T02:49:18;26.50;;;14.77;;
64738;SDS011;51175;51.186;0.276;2022-10-16T02:49:49;32.58;;;14.82;;
64738;SDS011;51175;51.186;0.276;2022-10-16T02:50:19;30.63;;;15.18;;
64738;SDS011;51175;51.186;0.276;2022-10-16T02:50:49;35.72;;;15.48;;
64738;SDS011;51175;51.186;0.276;2022-10-16T02:51:21;36.08;;;16.63;;
64738;SDS011;51175;51.186;0.276;2022-10-16T02:51:51;28.85;;;15.18;;
64738;SDS011;51175;51.186;0.276;2022-10-16T02:52:21;31.30;;;15.30;;
64738;SDS011;51175;51.186;0.276;2022-10-16T02:52:52;28.42;;;15.10;;
64738;SDS011;51175;51.186;0.276;2022-10-16T02:53:22;32.15;;;15.43;;
64738;SDS011;51175;51.186;0.276;2022-10-16T02:53:53;37.97;;;17.50;;
64738;SDS011;51175;51.186;0.276;2022-10-16T02:54:23;34.30;;;16.70;;
64738;SDS011;51175;51.186;0.276;2022-10-16T02:54:54;30.27;;;15.05;;
64738;SDS011;51175;51.186;0.276;2022-10-16T02:55:24;32.08;;;16.92;;
64738;SDS011;51175;51.186;0.276;2022-10-16T02:55:54;36.60;;;15.82;;
64738;SDS011;51175;51.186;0.276;2022-10-16T02:56:25;38.70;;;17.35;;
64738;SDS011;51175;51.186;0.276;2022-10-16T02:56:55;43.83;;;16.85;;
64738;SDS011;51175;51.186;0.276;2022-10-16T02:57:25;30.35;;;15.90;;
64738;SDS011;51175;51.186;0.276;2022-10-16T02:57:56;35.90;;;16.55;;
64738;SDS011;51175;51.186;0.276;2022-10-16T02:58:27;30.98;;;15.23;;
64738;SDS011;51175;51.186;0.276;2022-10-16T02:58:57;26.73;;;14.50;;
64738;SDS011;51175;51.186;0.276;2022-10-16T02:59:27;33.50;;;13.90;;
64738;SDS011;51175;51.186;0.276;2022-10-16T02:59:58;36.63;;;16.83;;
64738;SDS011;51175;51.186;0.276;2022-10-16T03:00:28;28.20;;;15.25;;
64738;SDS011;51175;51.186;0.276;2022-10-16T03:00:59;31.15;;;15.25;;
64738;SDS011;51175;51.186;0.276;2022-10-16T03:01:29;29.35;;;14.10;;
64738;SDS011;51175;51.186;0.276;2022-10-16T03:01:59;32.05;;;13.85;;
64738;SDS011;51175;51.186;0.276;2022-10-16T03:02:30;28.40;;;13.88;;
64738;SDS011;51175;51.186;0.276;2022-10-16T03:03:00;25.95;;;14.68;;
64738;SDS011;51175;51.186;0.276;2022-10-16T03:03:31;32.22;;;14.80;;
64738;SDS011;51175;51.186;0.276;2022-10-16T03:04:01;27.40;;;13.43;;
64738;SDS011;51175;51.186;0.276;2022-10-16T03:04:31;31.58;;;13.40;;
64738;SDS011;51175;51.186;0.276;2022-10-16T03:05:02;27.73;;;13.52;;
64738;SDS011;51175;51.186;0.276;2022-10-16T03:05:32;28.02;;;13.13;;
64738;SDS011;51175;51.186;0.276;2022-10-16T03:06:03;25.55;;;12.23;;
64738;SDS011;51175;51.186;0.276;2022-10-16T03:06:33;29.98;;;13.40;;
64738;SDS011;51175;51.186;0.276;2022-10-16T03:07:04;30.05;;;14.30;;
64738;SDS011;51175;51.186;0.276;2022-10-16T03:07:34;24.90;;;13.27;;
64738;SDS011;51175;51.186;0.276;2022-10-16T03:08:05;30.60;;;13.07;;
64738;SDS011;51175;51.186;0.276;2022-10-16T03:08:35;28.33;;;14.20;;
64738;SDS011;51175;51.186;0.276;2022-10-16T03:09:06;27.95;;;13.70;;
64738;SDS011;51175;51.186;0.276;2022-10-16T03:09:36;31.08;;;12.68;;
64738;SDS011;51175;51.186;0.276;2022-10-16T03:10:06;27.98;;;13.13;;
64738;SDS011;51175;51.186;0.276;2022-10-16T03:10:37;31.25;;;12.60;;
64738;SDS011;51175;51.186;0.276;2022-10-16T03:11:07;31.13;;;14.68;;
64738;SDS011;51175;51.186;0.276;2022-10-16T03:11:38;31.08;;;14.02;;
64738;SDS011;51175;51.186;0.276;2022-10-16T03:12:08;25.90;;;13.35;;
64738;SDS011;51175;51.186;0.276;2022-10-16T03:12:39;25.60;;;13.10;;
64738;SDS011;51175;51.186;0.276;2022-10-16T03:13:09;29.02;;;13.98;;
64738;SDS011;51175;51.186;0.276;2022-10-16T03:13:39;30.20;;;14.18;;
64738;SDS011;51175;51.186;0.276;2022-10-16T03:14:10;32.00;;;13.60;;
64738;SDS011;51175;51.186;0.276;2022-10-16T03:14:40;27.10;;;13.85;;
64738;SDS011;51175;51.186;0.276;2022-10-16T03:15:10;35.20;;;15.30;;
64738;SDS011;51175;51.186;0.276;2022-10-16T03:15:41;29.95;;;14.43;;
64738;SDS011;51175;51.186;0.276;2022-10-16T03:16:11;32.50;;;13.18;;
64738;SDS011;51175;51.186;0.276;2022-10-16T03:16:41;27.45;;;13.65;;
64738;SDS011;51175;51.186;0.276;2022-10-16T03:17:12;27.25;;;13.15;;
64738;SDS011;51175;51.186;0.276;2022-10-16T03:17:43;29.63;;;13.38;;
64738;SDS011;51175;51.186;0.276;2022-10-16T03:18:13;28.75;;;14.48;;
64738;SDS011;51175;51.186;0.276;2022-10-16T03:18:47;31.13;;;13.70;;
64738;SDS011;51175;51.186;0.276;2022-10-16T03:19:19;27.77;;;12.77;;
64738;SDS011;51175;51.186;0.276;2022-10-16T03:19:49;28.85;;;13.98;;
64738;SDS011;51175;51.186;0.276;2022-10-16T03:20:20;25.77;;;12.40;;
64738;SDS011;51175;51.186;0.276;2022-10-16T03:20:50;30.52;;;13.63;;
64738;SDS011;51175;51.186;0.276;2022-10-16T03:21:20;25.23;;;13.35;;
64738;SDS011;51175;51.186;0.276;2022-10-16T03:21:51;32.58;;;16.33;;
64738;SDS011;51175;51.186;0.276;2022-10-16T03:22:21;27.35;;;12.65;;
64738;SDS011;51175;51.186;0.276;2022-10-16T03:22:52;27.92;;;12.85;;
64738;SDS011;51175;51.186;0.276;2022-10-16T03:23:22;25.85;;;14.25;;
64738;SDS011;51175;51.186;0.276;2022-10-16T03:23:52;32.60;;;13.32;;
64738;SDS011;51175;51.186;0.276;2022-10-16T03:24:23;28.52;;;13.38;;
64738;SDS011;51175;51.186;0.276;2022-10-16T03:24:53;24.10;;;12.10;;
64738;SDS011;51175;51.186;0.276;2022-10-16T03:25:23;31.02;;;15.30;;
64738;SDS011;51175;51.186;0.276;2022-10-16T03:25:54;26.70;;;13.55;;
64738;SDS011;51175;51.186;0.276;2022-10-16T03:26:24;27.75;;;15.52;;
64738;SDS011;51175;51.186;0.276;2022-10-16T03:26:54;25.42;;;13.88;;
64738;SDS011;51175;51.186;0.276;2022-10-16T03:27:25;29.25;;;13.93;;
64738;SDS011;51175;51.186;0.276;2022-10-16T03:27:55;27.83;;;13.65;;
64738;SDS011;51175;51.186;0.276;2022-10-16T03:28:25;34.00;;;13.15;;
64738;SDS011;51175;51.186;0.276;2022-10-16T03:28:56;26.52;;;13.80;;